sensor_id;sensor_type;location;lat;lon;timestamp;P1;durP1;ratioP1;P2;durP2;ratioP2
7001;SDS011;3541;53.230;10.518;2022-10-16T00:00:20;3.95;;;3.33;;
7001;SDS011;3541;53.230;10.518;2022-10-16T00:02:46;3.17;;;2.90;;
7001;SDS011;3541;53.230;10.518;2022-10-16T00:05:13;3.45;;;3.10;;
7001;SDS011;3541;53.230;10.518;2022-10-16T00:07:41;4.60;;;3.30;;
7001;SDS011;3541;53.230;10.518;2022-10-16T00:10:08;3.67;;;3.38;;
7001;SDS011;3541;53.230;10.518;2022-10-16T00:12:34;4.47;;;3.50;;
7001;SDS011;3541;53.230;10.518;2022-10-16T00:15:01;4.88;;;3.30;;
7001;SDS011;3541;53.230;10.518;2022-10-16T00:17:28;5.13;;;3.28;;
7001;SDS011;3541;53.230;10.518;2022-10-16T00:19:55;4.35;;;3.55;;
7001;SDS011;3541;53.230;10.518;2022-10-16T00:22:22;4.68;;;3.35;;
7001;SDS011;3541;53.230;10.518;2022-10-16T00:24:50;3.45;;;3.15;;
7001;SDS011;3541;53.230;10.518;2022-10-16T00:27:17;4.15;;;3.42;;
7001;SDS011;3541;53.230;10.518;2022-10-16T00:29:44;6.78;;;3.47;;
7001;SDS011;3541;53.230;10.518;2022-10-16T00:32:10;5.20;;;3.58;;
7001;SDS011;3541;53.230;10.518;2022-10-16T00:34:37;5.80;;;3.90;;
7001;SDS011;3541;53.230;10.518;2022-10-16T00:37:04;3.85;;;3.25;;
7001;SDS011;3541;53.230;10.518;2022-10-16T00:39:30;3.80;;;3.40;;
7001;SDS011;3541;53.230;10.518;2022-10-16T00:41:58;3.78;;;3.25;;
7001;SDS011;3541;53.230;10.518;2022-10-16T00:44:45;5.10;;;3.10;;
7001;SDS011;3541;53.230;10.518;2022-10-16T00:47:16;7.88;;;2.90;;
7001;SDS011;3541;53.230;10.518;2022-10-16T00:49:46;7.32;;;2.83;;
7001;SDS011;3541;53.230;10.518;2022-10-16T00:52:15;3.67;;;2.65;;
7001;SDS011;3541;53.230;10.518;2022-10-16T00:54:43;2.95;;;2.75;;
7001;SDS011;3541;53.230;10.518;2022-10-16T00:57:13;3.20;;;2.80;;
7001;SDS011;3541;53.230;10.518;2022-10-16T00:59:40;5.00;;;2.90;;
7001;SDS011;3541;53.230;10.518;2022-10-16T01:02:09;3.95;;;2.75;;
7001;SDS011;3541;53.230;10.518;2022-10-16T01:04:40;3.03;;;2.70;;
7001;SDS011;3541;53.230;10.518;2022-10-16T01:07:11;3.22;;;2.88;;
7001;SDS011;3541;53.230;10.518;2022-10-16T01:09:45;4.13;;;2.97;;
7001;SDS011;3541;53.230;10.518;2022-10-16T01:12:22;3.00;;;2.70;;
7001;SDS011;3541;53.230;10.518;2022-10-16T01:15:00;4.10;;;2.90;;
7001;SDS011;3541;53.230;10.518;2022-10-16T01:17:34;3.10;;;2.80;;
7001;SDS011;3541;53.230;10.518;2022-10-16T01:20:07;2.60;;;2.40;;
7001;SDS011;3541;53.230;10.518;2022-10-16T01:22:43;4.60;;;2.63;;
7001;SDS011;3541;53.230;10.518;2022-10-16T01:25:23;2.63;;;2.28;;
7001;SDS011;3541;53.230;10.518;2022-10-16T01:27:56;3.47;;;2.90;;
7001;SDS011;3541;53.230;10.518;2022-10-16T01:30:26;3.10;;;2.30;;
7001;SDS011;3541;53.230;10.518;2022-10-16T01:32:56;3.17;;;2.60;;
7001;SDS011;3541;53.230;10.518;2022-10-16T01:35:29;3.17;;;2.55;;
7001;SDS011;3541;53.230;10.518;2022-10-16T01:38:01;3.10;;;2.33;;
7001;SDS011;3541;53.230;10.518;2022-10-16T01:40:32;2.15;;;1.88;;
7001;SDS011;3541;53.230;10.518;2022-10-16T01:43:04;3.10;;;2.28;;
7001;SDS011;3541;53.230;10.518;2022-10-16T01:45:33;3.38;;;2.05;;
7001;SDS011;3541;53.230;10.518;2022-10-16T01:48:02;2.80;;;2.10;;
7001;SDS011;3541;53.230;10.518;2022-10-16T01:50:33;2.67;;;1.90;;
7001;SDS011;3541;53.230;10.518;2022-10-16T01:53:03;2.58;;;1.90;;
7001;SDS011;3541;53.230;10.518;2022-10-16T01:55:32;4.25;;;1.98;;
7001;SDS011;3541;53.230;10.518;2022-10-16T01:58:05;2.65;;;2.30;;
7001;SDS011;3541;53.230;10.518;2022-10-16T02:00:36;2.95;;;1.90;;
7001;SDS011;3541;53.230;10.518;2022-10-16T02:03:04;3.67;;;1.95;;
7001;SDS011;3541;53.230;10.518;2022-10-16T02:05:32;2.50;;;2.00;;
7001;SDS011;3541;53.230;10.518;2022-10-16T02:08:04;2.75;;;1.70;;
7001;SDS011;3541;53.230;10.518;2022-10-16T02:10:30;2.83;;;2.03;;
7001;SDS011;3541;53.230;10.518;2022-10-16T02:12:58;2.88;;;1.90;;
7001;SDS011;3541;53.230;10.518;2022-10-16T02:15:29;1.90;;;1.70;;
7001;SDS011;3541;53.230;10.518;2022-10-16T02:17:56;2.42;;;1.60;;
7001;SDS011;3541;53.230;10.518;2022-10-16T02:20:25;2.55;;;1.92;;
7001;SDS011;3541;53.230;10.518;2022-10-16T02:22:53;1.90;;;1.70;;
7001;SDS011;3541;53.230;10.518;2022-10-16T02:25:22;2.72;;;1.90;;
7001;SDS011;3541;53.230;10.518;2022-10-16T02:27:53;3.10;;;1.83;;
7001;SDS011;3541;53.230;10.518;2022-10-16T02:30:24;3.15;;;1.90;;
7001;SDS011;3541;53.230;10.518;2022-10-16T02:32:56;2.47;;;1.95;;
7001;SDS011;3541;53.230;10.518;2022-10-16T02:35:26;1.65;;;1.52;;
7001;SDS011;3541;53.230;10.518;2022-10-16T02:37:54;4.43;;;1.50;;
7001;SDS011;3541;53.230;10.518;2022-10-16T02:40:22;1.60;;;1.50;;
7001;SDS011;3541;53.230;10.518;2022-10-16T02:42:51;2.50;;;1.70;;
7001;SDS011;3541;53.230;10.518;2022-10-16T02:45:19;2.20;;;1.77;;
7001;SDS011;3541;53.230;10.518;2022-10-16T02:47:46;3.72;;;1.73;;
7001;SDS011;3541;53.230;10.518;2022-10-16T02:50:14;2.35;;;1.63;;
7001;SDS011;3541;53.230;10.518;2022-10-16T02:52:41;2.78;;;1.75;;
7001;SDS011;3541;53.230;10.518;2022-10-16T02:55:08;4.77;;;1.80;;
7001;SDS011;3541;53.230;10.518;2022-10-16T02:57:34;1.70;;;1.60;;
7001;SDS011;3541;53.230;10.518;2022-10-16T03:00:02;1.92;;;1.80;;
7001;SDS011;3541;53.230;10.518;2022-10-16T03:02:30;2.30;;;1.48;;
7001;SDS011;3541;53.230;10.518;2022-10-16T03:04:56;3.17;;;1.60;;
7001;SDS011;3541;53.230;10.518;2022-10-16T03:07:24;2.38;;;2.08;;
7001;SDS011;3541;53.230;10.518;2022-10-16T03:09:51;2.55;;;1.67;;
7001;SDS011;3541;53.230;10.518;2022-10-16T03:12:18;3.63;;;2.00;;
7001;SDS011;3541;53.230;10.518;2022-10-16T03:14:44;3.07;;;1.60;;
7001;SDS011;3541;53.230;10.518;2022-10-16T03:17:11;3.53;;;1.80;;
7001;SDS011;3541;53.230;10.518;2022-10-16T03:19:38;4.38;;;1.80;;
7001;SDS011;3541;53.230;10.518;2022-10-16T03:22:04;3.88;;;1.83;;
7001;SDS011;3541;53.230;10.518;2022-10-16T03:24:32;3.17;;;1.90;;
7001;SDS011;3541;53.230;10.518;2022-10-16T03:26:59;3.35;;;1.77;;
7001;SDS011;3541;53.230;10.518;2022-10-16T03:29:26;4.95;;;1.73;;
7001;SDS011;3541;53.230;10.518;2022-10-16T03:31:54;4.00;;;1.90;;
7001;SDS011;3541;53.230;10.518;2022-10-16T03:34:21;2.10;;;1.90;;
7001;SDS011;3541;53.230;10.518;2022-10-16T03:36:47;2.47;;;1.70;;
7001;SDS011;3541;53.230;10.518;2022-10-16T03:39:14;2.47;;;1.80;;
7001;SDS011;3541;53.230;10.518;2022-10-16T03:41:42;3.67;;;2.13;;
7001;SDS011;3541;53.230;10.518;2022-10-16T03:44:08;5.47;;;2.13;;
7001;SDS011;3541;53.230;10.518;2022-10-16T03:46:35;3.47;;;1.80;;
7001;SDS011;3541;53.230;10.518;2022-10-16T03:49:02;2.20;;;1.70;;
7001;SDS011;3541;53.230;10.518;2022-10-16T03:51:28;3.30;;;1.50;;
7001;SDS011;3541;53.230;10.518;2022-10-16T03:53:55;3.45;;;2.00;;
7001;SDS011;3541;53.230;10.518;2022-10-16T03:56:21;2.47;;;1.70;;
7001;SDS011;3541;53.230;10.518;2022-10-16T03:58:49;2.27;;;1.50;;
7001;SDS011;3541;53.230;10.518;2022-10-16T04:01:16;2.10;;;1.75;;
7001;SDS011;3541;53.230;10.518;2022-10-16T04:03:43;3.53;;;2.10;;
7001;SDS011;3541;53.230;10.518;2022-10-16T04:06:09;2.73;;;1.70;;
7001;SDS011;3541;53.230;10.518;2022-10-16T04:08:36;3.30;;;1.85;;
7001;SDS011;3541;53.230;10.518;2022-10-16T04:11:04;1.93;;;1.57;;
7001;SDS011;3541;53.230;10.518;2022-10-16T04:13:31;4.18;;;1.60;;
7001;SDS011;3541;53.230;10.518;2022-10-16T04:15:58;3.07;;;1.77;;
7001;SDS011;3541;53.230;10.518;2022-10-16T04:18:25;2.65;;;1.50;;
7001;SDS011;3541;53.230;10.518;2022-10-16T04:20:52;2.27;;;1.43;;
7001;SDS011;3541;53.230;10.518;2022-10-16T04:23:19;13.43;;;2.43;;
7001;SDS011;3541;53.230;10.518;2022-10-16T04:25:47;4.97;;;1.80;;
7001;SDS011;3541;53.230;10.518;2022-10-16T04:28:14;2.93;;;1.70;;
7001;SDS011;3541;53.230;10.518;2022-10-16T04:30:41;3.27;;;1.80;;
7001;SDS011;3541;53.230;10.518;2022-10-16T04:33:09;3.00;;;1.48;;
7001;SDS011;3541;53.230;10.518;2022-10-16T04:35:37;2.93;;;1.83;;
7001;SDS011;3541;53.230;10.518;2022-10-16T04:38:04;1.80;;;1.70;;
7001;SDS011;3541;53.230;10.518;2022-10-16T04:40:30;2.90;;;1.63;;
7001;SDS011;3541;53.230;10.518;2022-10-16T04:43:00;3.93;;;1.70;;
7001;SDS011;3541;53.230;10.518;2022-10-16T04:45:27;3.17;;;1.60;;
7001;SDS011;3541;53.230;10.518;2022-10-16T04:47:56;3.27;;;1.87;;
7001;SDS011;3541;53.230;10.518;2022-10-16T04:50:24;2.17;;;1.80;;
7001;SDS011;3541;53.230;10.518;2022-10-16T04:52:51;1.77;;;1.57;;
7001;SDS011;3541;53.230;10.518;2022-10-16T04:55:18;3.10;;;1.70;;
7001;SDS011;3541;53.230;10.518;2022-10-16T04:57:45;5.97;;;2.03;;
7001;SDS011;3541;53.230;10.518;2022-10-16T05:00:12;3.83;;;2.10;;
7001;SDS011;3541;53.230;10.518;2022-10-16T05:02:39;4.77;;;1.80;;
7001;SDS011;3541;53.230;10.518;2022-10-16T05:05:05;2.63;;;2.00;;
7001;SDS011;3541;53.230;10.518;2022-10-16T05:07:34;3.80;;;2.43;;
7001;SDS011;3541;53.230;10.518;2022-10-16T05:10:00;4.27;;;2.00;;
7001;SDS011;3541;53.230;10.518;2022-10-16T05:12:27;3.07;;;2.00;;
7001;SDS011;3541;53.230;10.518;2022-10-16T05:14:53;2.87;;;1.90;;
7001;SDS011;3541;53.230;10.518;2022-10-16T05:17:23;2.80;;;1.97;;
7001;SDS011;3541;53.230;10.518;2022-10-16T05:19:49;3.87;;;1.90;;
7001;SDS011;3541;53.230;10.518;2022-10-16T05:22:16;3.10;;;2.00;;
7001;SDS011;3541;53.230;10.518;2022-10-16T05:24:44;4.63;;;1.90;;
7001;SDS011;3541;53.230;10.518;2022-10-16T05:27:11;2.60;;;1.90;;
7001;SDS011;3541;53.230;10.518;2022-10-16T05:29:43;3.38;;;2.30;;
7001;SDS011;3541;53.230;10.518;2022-10-16T05:32:10;2.67;;;1.97;;
7001;SDS011;3541;53.230;10.518;2022-10-16T05:34:37;2.88;;;2.38;;
7001;SDS011;3541;53.230;10.518;2022-10-16T05:37:03;3.00;;;2.00;;
7001;SDS011;3541;53.230;10.518;2022-10-16T05:39:30;3.57;;;2.03;;
7001;SDS011;3541;53.230;10.518;2022-10-16T05:41:58;2.63;;;1.90;;
7001;SDS011;3541;53.230;10.518;2022-10-16T05:44:25;2.17;;;1.90;;
7001;SDS011;3541;53.230;10.518;2022-10-16T05:46:52;5.22;;;2.03;;
7001;SDS011;3541;53.230;10.518;2022-10-16T05:49:18;3.40;;;2.10;;
7001;SDS011;3541;53.230;10.518;2022-10-16T05:51:45;2.77;;;2.00;;
7001;SDS011;3541;53.230;10.518;2022-10-16T05:54:11;3.60;;;2.00;;
7001;SDS011;3541;53.230;10.518;2022-10-16T05:56:38;3.77;;;1.90;;
7001;SDS011;3541;53.230;10.518;2022-10-16T05:59:06;4.07;;;2.20;;
7001;SDS011;3541;53.230;10.518;2022-10-16T06:01:33;6.73;;;1.90;;
7001;SDS011;3541;53.230;10.518;2022-10-16T06:04:00;2.87;;;1.97;;
7001;SDS011;3541;53.230;10.518;2022-10-16T06:06:27;3.50;;;2.20;;
7001;SDS011;3541;53.230;10.518;2022-10-16T06:08:55;4.53;;;2.47;;
7001;SDS011;3541;53.230;10.518;2022-10-16T06:11:23;5.30;;;2.90;;
7001;SDS011;3541;53.230;10.518;2022-10-16T06:13:52;4.30;;;2.00;;
7001;SDS011;3541;53.230;10.518;2022-10-16T06:16:23;3.97;;;1.90;;
7001;SDS011;3541;53.230;10.518;2022-10-16T06:18:50;5.93;;;2.13;;
7001;SDS011;3541;53.230;10.518;2022-10-16T06:21:18;2.57;;;1.97;;
7001;SDS011;3541;53.230;10.518;2022-10-16T06:23:45;4.43;;;1.90;;
7001;SDS011;3541;53.230;10.518;2022-10-16T06:26:13;5.20;;;2.13;;
7001;SDS011;3541;53.230;10.518;2022-10-16T06:28:41;2.53;;;1.83;;
7001;SDS011;3541;53.230;10.518;2022-10-16T06:31:08;3.70;;;1.83;;
7001;SDS011;3541;53.230;10.518;2022-10-16T06:33:38;3.07;;;1.90;;
7001;SDS011;3541;53.230;10.518;2022-10-16T06:36:06;3.70;;;2.00;;
7001;SDS011;3541;53.230;10.518;2022-10-16T06:38:35;2.87;;;1.83;;
7001;SDS011;3541;53.230;10.518;2022-10-16T06:41:03;3.37;;;1.90;;
7001;SDS011;3541;53.230;10.518;2022-10-16T06:43:30;3.73;;;1.90;;
7001;SDS011;3541;53.230;10.518;2022-10-16T06:45:58;4.73;;;2.30;;
7001;SDS011;3541;53.230;10.518;2022-10-16T06:48:26;4.43;;;2.50;;
7001;SDS011;3541;53.230;10.518;2022-10-16T06:50:58;4.70;;;2.67;;
7001;SDS011;3541;53.230;10.518;2022-10-16T06:53:27;6.80;;;2.73;;
7001;SDS011;3541;53.230;10.518;2022-10-16T06:55:54;2.90;;;2.10;;
7001;SDS011;3541;53.230;10.518;2022-10-16T06:58:22;4.17;;;2.43;;
7001;SDS011;3541;53.230;10.518;2022-10-16T07:00:49;2.20;;;1.93;;
7001;SDS011;3541;53.230;10.518;2022-10-16T07:03:21;3.90;;;2.37;;
7001;SDS011;3541;53.230;10.518;2022-10-16T07:05:48;4.23;;;2.90;;
7001;SDS011;3541;53.230;10.518;2022-10-16T07:08:16;6.27;;;3.00;;
7001;SDS011;3541;53.230;10.518;2022-10-16T07:10:42;3.27;;;2.13;;
7001;SDS011;3541;53.230;10.518;2022-10-16T07:13:09;5.20;;;2.27;;
7001;SDS011;3541;53.230;10.518;2022-10-16T07:15:38;5.70;;;2.53;;
7001;SDS011;3541;53.230;10.518;2022-10-16T07:18:04;5.00;;;2.30;;
7001;SDS011;3541;53.230;10.518;2022-10-16T07:20:31;5.23;;;2.20;;
7001;SDS011;3541;53.230;10.518;2022-10-16T07:22:58;2.27;;;2.00;;
7001;SDS011;3541;53.230;10.518;2022-10-16T07:25:26;3.07;;;2.23;;
7001;SDS011;3541;53.230;10.518;2022-10-16T07:27:52;2.50;;;2.27;;
7001;SDS011;3541;53.230;10.518;2022-10-16T07:30:20;6.50;;;2.43;;
7001;SDS011;3541;53.230;10.518;2022-10-16T07:32:47;2.93;;;2.17;;
7001;SDS011;3541;53.230;10.518;2022-10-16T07:35:14;4.40;;;2.10;;
7001;SDS011;3541;53.230;10.518;2022-10-16T07:37:43;6.40;;;2.80;;
7001;SDS011;3541;53.230;10.518;2022-10-16T07:40:10;2.63;;;2.10;;
7001;SDS011;3541;53.230;10.518;2022-10-16T07:42:38;2.50;;;2.30;;
7001;SDS011;3541;53.230;10.518;2022-10-16T07:45:05;3.05;;;2.35;;
7001;SDS011;3541;53.230;10.518;2022-10-16T07:47:32;3.80;;;2.20;;
7001;SDS011;3541;53.230;10.518;2022-10-16T07:49:59;3.73;;;2.40;;
7001;SDS011;3541;53.230;10.518;2022-10-16T07:52:25;4.73;;;2.50;;
7001;SDS011;3541;53.230;10.518;2022-10-16T07:54:52;3.43;;;2.13;;
7001;SDS011;3541;53.230;10.518;2022-10-16T07:57:18;4.63;;;2.43;;
7001;SDS011;3541;53.230;10.518;2022-10-16T07:59:46;3.73;;;1.80;;
7001;SDS011;3541;53.230;10.518;2022-10-16T08:02:13;2.73;;;2.00;;
7001;SDS011;3541;53.230;10.518;2022-10-16T08:04:39;5.67;;;2.20;;
7001;SDS011;3541;53.230;10.518;2022-10-16T08:07:06;4.77;;;2.50;;
7001;SDS011;3541;53.230;10.518;2022-10-16T08:09:34;4.43;;;2.77;;
7001;SDS011;3541;53.230;10.518;2022-10-16T08:12:00;2.27;;;2.03;;
7001;SDS011;3541;53.230;10.518;2022-10-16T08:14:27;3.63;;;1.90;;
7001;SDS011;3541;53.230;10.518;2022-10-16T08:16:55;4.30;;;1.97;;
7001;SDS011;3541;53.230;10.518;2022-10-16T08:19:21;3.33;;;2.53;;
7001;SDS011;3541;53.230;10.518;2022-10-16T08:21:48;3.03;;;1.90;;
7001;SDS011;3541;53.230;10.518;2022-10-16T08:24:14;6.10;;;2.10;;
7001;SDS011;3541;53.230;10.518;2022-10-16T08:26:41;4.28;;;2.00;;
7001;SDS011;3541;53.230;10.518;2022-10-16T08:29:08;4.90;;;2.20;;
7001;SDS011;3541;53.230;10.518;2022-10-16T08:31:34;3.05;;;1.80;;
7001;SDS011;3541;53.230;10.518;2022-10-16T08:34:02;2.90;;;1.60;;
7001;SDS011;3541;53.230;10.518;2022-10-16T08:36:29;2.85;;;1.65;;
7001;SDS011;3541;53.230;10.518;2022-10-16T08:38:55;3.47;;;1.88;;
7001;SDS011;3541;53.230;10.518;2022-10-16T08:41:45;3.70;;;1.88;;
7001;SDS011;3541;53.230;10.518;2022-10-16T08:47:53;2.55;;;1.83;;
7001;SDS011;3541;53.230;10.518;2022-10-16T08:50:35;2.55;;;1.60;;
7001;SDS011;3541;53.230;10.518;2022-10-16T08:53:04;2.58;;;1.70;;
7001;SDS011;3541;53.230;10.518;2022-10-16T08:55:33;3.88;;;1.60;;
7001;SDS011;3541;53.230;10.518;2022-10-16T08:58:13;2.40;;;1.67;;
7001;SDS011;3541;53.230;10.518;2022-10-16T09:00:41;2.53;;;1.70;;
7001;SDS011;3541;53.230;10.518;2022-10-16T09:03:11;2.40;;;1.88;;
7001;SDS011;3541;53.230;10.518;2022-10-16T09:05:54;1.67;;;1.58;;
7001;SDS011;3541;53.230;10.518;2022-10-16T09:08:32;2.22;;;1.90;;
7001;SDS011;3541;53.230;10.518;2022-10-16T09:11:09;3.50;;;1.52;;
7001;SDS011;3541;53.230;10.518;2022-10-16T09:13:47;3.58;;;1.60;;
7001;SDS011;3541;53.230;10.518;2022-10-16T09:16:19;2.03;;;1.85;;
7001;SDS011;3541;53.230;10.518;2022-10-16T09:18:51;6.40;;;1.60;;
7001;SDS011;3541;53.230;10.518;2022-10-16T09:21:26;2.17;;;1.40;;
7001;SDS011;3541;53.230;10.518;2022-10-16T09:23:57;3.42;;;1.52;;
7001;SDS011;3541;53.230;10.518;2022-10-16T09:26:26;2.03;;;1.35;;
7001;SDS011;3541;53.230;10.518;2022-10-16T09:28:52;1.83;;;1.42;;
7001;SDS011;3541;53.230;10.518;2022-10-16T09:31:20;2.40;;;1.50;;
7001;SDS011;3541;53.230;10.518;2022-10-16T09:33:49;4.10;;;1.60;;
7001;SDS011;3541;53.230;10.518;2022-10-16T09:36:20;1.70;;;1.60;;
7001;SDS011;3541;53.230;10.518;2022-10-16T09:38:50;1.80;;;1.50;;
7001;SDS011;3541;53.230;10.518;2022-10-16T09:41:27;1.45;;;1.30;;
7001;SDS011;3541;53.230;10.518;2022-10-16T09:43:54;2.58;;;1.40;;
7001;SDS011;3541;53.230;10.518;2022-10-16T09:46:25;1.95;;;1.27;;
7001;SDS011;3541;53.230;10.518;2022-10-16T09:48:54;2.10;;;1.48;;
7001;SDS011;3541;53.230;10.518;2022-10-16T09:51:24;2.58;;;1.42;;
7001;SDS011;3541;53.230;10.518;2022-10-16T09:53:56;1.45;;;1.20;;
7001;SDS011;3541;53.230;10.518;2022-10-16T09:56:25;3.22;;;1.48;;
7001;SDS011;3541;53.230;10.518;2022-10-16T09:58:54;1.60;;;1.25;;
7001;SDS011;3541;53.230;10.518;2022-10-16T10:01:22;2.30;;;1.40;;
7001;SDS011;3541;53.230;10.518;2022-10-16T10:03:55;4.45;;;1.30;;
7001;SDS011;3541;53.230;10.518;2022-10-16T10:06:27;1.95;;;1.10;;
7001;SDS011;3541;53.230;10.518;2022-10-16T10:09:01;1.30;;;1.10;;
7001;SDS011;3541;53.230;10.518;2022-10-16T10:11:37;1.40;;;1.20;;
7001;SDS011;3541;53.230;10.518;2022-10-16T10:14:05;1.90;;;1.17;;
7001;SDS011;3541;53.230;10.518;2022-10-16T10:16:32;2.58;;;1.17;;
7001;SDS011;3541;53.230;10.518;2022-10-16T10:18:58;3.65;;;1.30;;
7001;SDS011;3541;53.230;10.518;2022-10-16T10:21:25;2.30;;;1.00;;
7001;SDS011;3541;53.230;10.518;2022-10-16T10:23:54;5.28;;;1.50;;
7001;SDS011;3541;53.230;10.518;2022-10-16T10:26:24;3.15;;;1.27;;
7001;SDS011;3541;53.230;10.518;2022-10-16T10:28:55;4.55;;;1.30;;
7001;SDS011;3541;53.230;10.518;2022-10-16T10:31:29;2.45;;;1.30;;
7001;SDS011;3541;53.230;10.518;2022-10-16T10:34:08;1.75;;;1.05;;
7001;SDS011;3541;53.230;10.518;2022-10-16T10:36:49;3.30;;;1.30;;
7001;SDS011;3541;53.230;10.518;2022-10-16T10:39:23;1.58;;;1.35;;
7001;SDS011;3541;53.230;10.518;2022-10-16T10:41:59;1.77;;;1.05;;
7001;SDS011;3541;53.230;10.518;2022-10-16T10:44:56;3.03;;;1.42;;
7001;SDS011;3541;53.230;10.518;2022-10-16T10:47:36;2.13;;;1.20;;
7001;SDS011;3541;53.230;10.518;2022-10-16T10:50:11;2.72;;;1.20;;
7001;SDS011;3541;53.230;10.518;2022-10-16T10:52:43;2.08;;;0.98;;
7001;SDS011;3541;53.230;10.518;2022-10-16T10:55:20;3.95;;;1.17;;
7001;SDS011;3541;53.230;10.518;2022-10-16T10:57:56;1.35;;;0.93;;
7001;SDS011;3541;53.230;10.518;2022-10-16T11:00:39;1.77;;;1.17;;
7001;SDS011;3541;53.230;10.518;2022-10-16T11:03:19;2.08;;;1.10;;
7001;SDS011;3541;53.230;10.518;2022-10-16T11:06:02;1.42;;;1.33;;
7001;SDS011;3541;53.230;10.518;2022-10-16T11:08:32;2.67;;;1.20;;
7001;SDS011;3541;53.230;10.518;2022-10-16T11:11:02;3.63;;;1.10;;
7001;SDS011;3541;53.230;10.518;2022-10-16T11:13:33;2.25;;;1.10;;
7001;SDS011;3541;53.230;10.518;2022-10-16T11:16:10;2.05;;;1.20;;
7001;SDS011;3541;53.230;10.518;2022-10-16T11:18:44;1.60;;;0.95;;
7001;SDS011;3541;53.230;10.518;2022-10-16T11:21:17;2.70;;;1.27;;
7001;SDS011;3541;53.230;10.518;2022-10-16T11:23:48;2.63;;;0.98;;
7001;SDS011;3541;53.230;10.518;2022-10-16T11:26:21;4.45;;;1.02;;
7001;SDS011;3541;53.230;10.518;2022-10-16T11:28:53;3.13;;;1.52;;
7001;SDS011;3541;53.230;10.518;2022-10-16T11:31:24;2.70;;;1.42;;
7001;SDS011;3541;53.230;10.518;2022-10-16T11:33:58;2.45;;;1.27;;
7001;SDS011;3541;53.230;10.518;2022-10-16T11:36:32;3.40;;;1.17;;
7001;SDS011;3541;53.230;10.518;2022-10-16T11:39:02;2.05;;;1.20;;
7001;SDS011;3541;53.230;10.518;2022-10-16T11:41:37;2.17;;;1.00;;
7001;SDS011;3541;53.230;10.518;2022-10-16T11:44:13;2.30;;;1.20;;
7001;SDS011;3541;53.230;10.518;2022-10-16T11:46:46;1.95;;;1.15;;
7001;SDS011;3541;53.230;10.518;2022-10-16T11:49:18;2.63;;;1.10;;
7001;SDS011;3541;53.230;10.518;2022-10-16T11:51:48;2.17;;;1.17;;
7001;SDS011;3541;53.230;10.518;2022-10-16T11:54:24;2.35;;;1.30;;
7001;SDS011;3541;53.230;10.518;2022-10-16T11:57:00;2.83;;;0.95;;
7001;SDS011;3541;53.230;10.518;2022-10-16T11:59:35;5.07;;;1.50;;
7001;SDS011;3541;53.230;10.518;2022-10-16T12:02:16;6.60;;;1.83;;
7001;SDS011;3541;53.230;10.518;2022-10-16T12:04:56;2.55;;;1.42;;
7001;SDS011;3541;53.230;10.518;2022-10-16T12:07:34;1.77;;;1.10;;
7001;SDS011;3541;53.230;10.518;2022-10-16T12:10:17;2.35;;;1.27;;
7001;SDS011;3541;53.230;10.518;2022-10-16T12:12:47;3.33;;;1.17;;
7001;SDS011;3541;53.230;10.518;2022-10-16T12:15:19;3.78;;;1.40;;
7001;SDS011;3541;53.230;10.518;2022-10-16T12:17:49;2.33;;;1.30;;
7001;SDS011;3541;53.230;10.518;2022-10-16T12:20:26;2.75;;;1.55;;
7001;SDS011;3541;53.230;10.518;2022-10-16T12:22:57;1.38;;;1.00;;
7001;SDS011;3541;53.230;10.518;2022-10-16T12:25:26;1.40;;;1.10;;
7001;SDS011;3541;53.230;10.518;2022-10-16T12:27:56;4.78;;;1.63;;
7001;SDS011;3541;53.230;10.518;2022-10-16T12:30:27;2.35;;;1.50;;
7001;SDS011;3541;53.230;10.518;2022-10-16T12:32:56;3.35;;;1.15;;
7001;SDS011;3541;53.230;10.518;2022-10-16T12:35:24;3.05;;;1.10;;
7001;SDS011;3541;53.230;10.518;2022-10-16T12:37:53;2.35;;;1.10;;
7001;SDS011;3541;53.230;10.518;2022-10-16T12:40:29;3.95;;;1.30;;
7001;SDS011;3541;53.230;10.518;2022-10-16T12:42:58;2.10;;;1.10;;
7001;SDS011;3541;53.230;10.518;2022-10-16T12:45:38;1.98;;;1.00;;
7001;SDS011;3541;53.230;10.518;2022-10-16T12:48:18;3.78;;;1.30;;
7001;SDS011;3541;53.230;10.518;2022-10-16T12:50:46;2.10;;;1.20;;
7001;SDS011;3541;53.230;10.518;2022-10-16T12:53:17;4.07;;;1.40;;
7001;SDS011;3541;53.230;10.518;2022-10-16T12:55:47;3.28;;;1.23;;
7001;SDS011;3541;53.230;10.518;2022-10-16T12:58:30;3.22;;;1.13;;
7001;SDS011;3541;53.230;10.518;2022-10-16T13:01:16;1.63;;;1.00;;
7001;SDS011;3541;53.230;10.518;2022-10-16T13:07:15;3.47;;;1.13;;
7001;SDS011;3541;53.230;10.518;2022-10-16T13:09:53;1.92;;;1.20;;
7001;SDS011;3541;53.230;10.518;2022-10-16T13:12:33;2.28;;;1.40;;
7001;SDS011;3541;53.230;10.518;2022-10-16T13:15:16;1.58;;;1.20;;
7001;SDS011;3541;53.230;10.518;2022-10-16T13:17:54;3.63;;;1.67;;
7001;SDS011;3541;53.230;10.518;2022-10-16T13:20:29;2.00;;;1.15;;
7001;SDS011;3541;53.230;10.518;2022-10-16T13:23:03;1.42;;;1.13;;
7001;SDS011;3541;53.230;10.518;2022-10-16T13:25:42;1.75;;;1.17;;
7001;SDS011;3541;53.230;10.518;2022-10-16T13:28:27;1.95;;;1.48;;
7001;SDS011;3541;53.230;10.518;2022-10-16T13:30:56;2.72;;;1.30;;
7001;SDS011;3541;53.230;10.518;2022-10-16T13:33:28;2.53;;;1.52;;
7001;SDS011;3541;53.230;10.518;2022-10-16T13:35:58;2.15;;;1.10;;
7001;SDS011;3541;53.230;10.518;2022-10-16T13:38:26;2.75;;;1.27;;
7001;SDS011;3541;53.230;10.518;2022-10-16T13:40:54;2.47;;;1.35;;
7001;SDS011;3541;53.230;10.518;2022-10-16T13:43:23;1.60;;;1.02;;
7001;SDS011;3541;53.230;10.518;2022-10-16T13:45:53;2.67;;;1.20;;
7001;SDS011;3541;53.230;10.518;2022-10-16T13:48:22;3.08;;;1.45;;
7001;SDS011;3541;53.230;10.518;2022-10-16T13:50:59;2.88;;;1.27;;
7001;SDS011;3541;53.230;10.518;2022-10-16T13:53:27;3.00;;;1.33;;
7001;SDS011;3541;53.230;10.518;2022-10-16T13:55:55;2.03;;;1.10;;
7001;SDS011;3541;53.230;10.518;2022-10-16T13:58:22;2.05;;;1.27;;
7001;SDS011;3541;53.230;10.518;2022-10-16T14:00:53;2.65;;;1.05;;
7001;SDS011;3541;53.230;10.518;2022-10-16T14:03:22;2.58;;;1.08;;
7001;SDS011;3541;53.230;10.518;2022-10-16T14:05:50;5.40;;;2.05;;
7001;SDS011;3541;53.230;10.518;2022-10-16T14:08:20;3.45;;;1.42;;
7001;SDS011;3541;53.230;10.518;2022-10-16T14:10:47;2.00;;;1.38;;
7001;SDS011;3541;53.230;10.518;2022-10-16T14:13:16;1.70;;;1.23;;
7001;SDS011;3541;53.230;10.518;2022-10-16T14:15:45;1.30;;;1.02;;
7001;SDS011;3541;53.230;10.518;2022-10-16T14:18:15;3.75;;;1.35;;
7001;SDS011;3541;53.230;10.518;2022-10-16T14:20:45;2.50;;;1.40;;
7001;SDS011;3541;53.230;10.518;2022-10-16T14:23:23;1.77;;;1.00;;
7001;SDS011;3541;53.230;10.518;2022-10-16T14:26:05;2.00;;;1.10;;
7001;SDS011;3541;53.230;10.518;2022-10-16T14:28:38;6.85;;;1.17;;
7001;SDS011;3541;53.230;10.518;2022-10-16T14:31:19;3.20;;;1.20;;
7001;SDS011;3541;53.230;10.518;2022-10-16T14:33:53;2.70;;;1.30;;
7001;SDS011;3541;53.230;10.518;2022-10-16T14:36:20;2.40;;;1.20;;
7001;SDS011;3541;53.230;10.518;2022-10-16T14:38:51;3.58;;;1.30;;
7001;SDS011;3541;53.230;10.518;2022-10-16T14:41:23;1.92;;;1.40;;
7001;SDS011;3541;53.230;10.518;2022-10-16T14:43:51;3.95;;;1.42;;
7001;SDS011;3541;53.230;10.518;2022-10-16T14:46:21;3.40;;;1.23;;
7001;SDS011;3541;53.230;10.518;2022-10-16T14:48:54;2.30;;;1.30;;
7001;SDS011;3541;53.230;10.518;2022-10-16T14:51:26;5.15;;;1.13;;
7001;SDS011;3541;53.230;10.518;2022-10-16T14:53:54;3.17;;;1.45;;
7001;SDS011;3541;53.230;10.518;2022-10-16T14:56:21;3.53;;;1.45;;
7001;SDS011;3541;53.230;10.518;2022-10-16T14:58:50;1.83;;;1.27;;
7001;SDS011;3541;53.230;10.518;2022-10-16T15:01:18;2.08;;;1.00;;
7001;SDS011;3541;53.230;10.518;2022-10-16T15:03:45;2.55;;;1.30;;
7001;SDS011;3541;53.230;10.518;2022-10-16T15:06:12;5.35;;;1.33;;
7001;SDS011;3541;53.230;10.518;2022-10-16T15:08:40;2.75;;;1.08;;
7001;SDS011;3541;53.230;10.518;2022-10-16T15:11:09;1.92;;;1.25;;
7001;SDS011;3541;53.230;10.518;2022-10-16T15:13:38;2.72;;;1.50;;
7001;SDS011;3541;53.230;10.518;2022-10-16T15:16:07;2.90;;;1.20;;
7001;SDS011;3541;53.230;10.518;2022-10-16T15:18:36;4.82;;;1.50;;
7001;SDS011;3541;53.230;10.518;2022-10-16T15:21:03;4.22;;;1.20;;
7001;SDS011;3541;53.230;10.518;2022-10-16T15:23:29;3.38;;;1.58;;